Data Viewer
| City | State | Eastern Time | Source | Daily Temp Max | Daily Temp Min | Daily Dew Point Max | Daily Dew Point Min | Daily RH Max | Daily Min RH | Daily BP Max | Daily BP Min | Daily Precip | Daily Wind Max | Daily Wind Max Dir |
|---|---|---|---|---|---|---|---|---|---|---|---|---|---|---|
| South Harrison | NJ | 2026-05-05 | Mesonet | 65 | 58 | 53 | 50 | 79 | 61 | 0.00 | 18 | S | ||
| Fortescue | NJ | 2026-05-05 | Mesonet | 62 | 60 | 60 | 59 | 100 | 88 | 29.92 | 29.87 | 0.00 | 21 | WSW |
| New Brunswick | NJ | 2026-05-05 | Mesonet | 64 | 54 | 52 | 46 | 82 | 59 | 29.89 | 29.84 | 0.00 | 13 | SSW |
| Howell | NJ | 2026-05-05 | Mesonet | 67 | 51 | 55 | 49 | 97 | 63 | 29.89 | 29.86 | 0.00 | 9 | SSW |
| Mansfield | NJ | 2026-05-05 | Mesonet | 66 | 56 | 53 | 50 | 84 | 60 | 0.00 | ||||
| Holmdel | NJ | 2026-05-05 | Mesonet | 64 | 54 | 55 | 48 | 87 | 69 | 0.00 | 9 | SE | ||
| Wall Twp. | NJ | 2026-05-05 | Mesonet | 66 | 54 | 55 | 50 | 94 | 63 | 0.00 | 11 | SSW | ||
| Hamilton | NJ | 2026-05-05 | Mesonet | 61 | 54 | 53 | 47 | 90 | 59 | 0.00 | 7 | SE | ||
| Toms River | NJ | 2026-05-05 | Mesonet | 67 | 57 | 53 | 49 | 83 | 58 | 0.00 | 11 | WSW | ||
| Jersey City | NJ | 2026-05-05 | Mesonet | 65 | 53 | 53 | 46 | 86 | 61 | 29.84 | 29.80 | 0.00 | 8 | SSE |
| Hammonton | NJ | 2026-05-05 | Mesonet | 65 | 56 | 54 | 50 | 83 | 64 | 0.00 | 16 | SSW | ||
| Oceanport | NJ | 2026-05-05 | Mesonet | 64 | 54 | 55 | 49 | 92 | 69 | 0.00 | 13 | W | ||
| Greenwich | NJ | 2026-05-05 | Mesonet | 65 | 57 | 55 | 51 | 85 | 66 | 0.00 | 11 | WSW | ||
| Hopewell Twp. | NJ | 2026-05-05 | Mesonet | 63 | 47 | 54 | 46 | 98 | 69 | 29.86 | 29.82 | 0.00 | 8 | S |
| Logan Twp. | NJ | 2026-05-05 | Mesonet | 63 | 58 | 54 | 48 | 78 | 63 | 29.89 | 29.85 | 0.01 | 18 | SSW |
| Mannington Twp. | NJ | 2026-05-05 | Mesonet | 66 | 57 | 56 | 53 | 93 | 64 | 29.90 | 29.84 | 0.00 | 15 | WSW |
| West Deptford | NJ | 2026-05-05 | Mesonet | 66 | 61 | 53 | 49 | 73 | 59 | 29.90 | 29.84 | 0.00 | 19 | SW |
| Haworth | NJ | 2026-05-05 | Mesonet | 62 | 53 | 56 | 46 | 91 | 57 | 29.86 | 29.81 | 0.00 | 6 | S |
| Vernon Twp. | NJ | 2026-05-05 | SafetyNet | 66 | 56 | 77 | 57 | 26 | ||||||
| Woodland Twp. | NJ | 2026-05-05 | Mesonet | 64 | 51 | 55 | 48 | 93 | 71 | 0.00 | 11 | S | ||
| Chester Borough | NJ | 2026-05-05 | Mesonet | 60 | 53 | 51 | 42 | 83 | 59 | 29.87 | 29.84 | 0.00 | 15 | SSW |
| Little Falls | NJ | 2026-05-05 | Mesonet | 62 | 53 | 52 | 45 | 83 | 59 | 29.86 | 29.82 | 0.00 | 12 | SSW |
| North Haledon | NJ | 2026-05-05 | Mesonet | 60 | 52 | 54 | 45 | 90 | 58 | 29.87 | 29.83 | 0.00 | 6 | SW |
| Little Egg Harbor Twp. | NJ | 2026-05-05 | Mesonet | 61 | 55 | 53 | 50 | 86 | 75 | 29.93 | 29.88 | 0.00 | 26 | SW |
| Wantage | NJ | 2026-05-05 | SafetyNet | 62 | 53 | 91 | 54 | 29.83 | 29.79 | 0.11 | 24 | |||
| East Brunswick | NJ | 2026-05-05 | Mesonet | 64 | 58 | 52 | 47 | 75 | 60 | 29.90 | 29.85 | 0.00 | 17 | S |
| Columbus | NJ | 2026-05-05 | Mesonet | 66 | 53 | 54 | 47 | 88 | 56 | 29.88 | 29.83 | 0.00 | 17 | SW |
| Sandyston | NJ | 2026-05-05 | Mesonet | 59 | 47 | 55 | 42 | 100 | 57 | 29.82 | 29.76 | 0.12 | 9 | SW |
| Hillsborough-Duke | NJ | 2026-05-05 | Mesonet | 64 | 47 | 56 | 45 | 100 | 66 | 29.85 | 29.81 | 0.00 | 7 | SSW |
| Lower Alloways Creek | NJ | 2026-05-05 | Mesonet | 29.89 | 29.84 | 0.00 | 18 | NW | ||||||
| Vineland | NJ | 2026-05-05 | Mesonet | 66 | 57 | 56 | 54 | 91 | 65 | 29.90 | 29.86 | 0.00 | 16 | WSW |
| Pennsauken | NJ | 2026-05-05 | Mesonet | 66 | 61 | 52 | 49 | 69 | 59 | 29.89 | 29.84 | 0.00 | 17 | S |
| Moorestown | NJ | 2026-05-05 | Mesonet | 66 | 60 | 51 | 48 | 68 | 56 | 29.88 | 29.84 | 0.00 | 20 | SW |
| Sicklerville | NJ | 2026-05-05 | Mesonet | 67 | 58 | 55 | 50 | 83 | 61 | 29.87 | 29.83 | 0.00 | 13 | WSW |
| Berkeley Twp. | NJ | 2026-05-05 | Mesonet | 66 | 56 | 55 | 51 | 88 | 65 | 29.89 | 29.85 | 0.00 | 18 | SW |
| Dennis Twp. | NJ | 2026-05-05 | Mesonet | 64 | 57 | 55 | 53 | 88 | 71 | 0.00 | 14 | SSW | ||
| Upper Deerfield | NJ | 2026-05-05 | Mesonet | 66 | 57 | 55 | 52 | 86 | 63 | 29.89 | 29.85 | 0.00 | 15 | WSW |
| Walpack | NJ | 2026-05-05 | Mesonet | 63 | 48 | 53 | 42 | 95 | 49 | 29.83 | 29.79 | 0.03 | 12 | W |
| Lyndhurst | NJ | 2026-05-05 | Mesonet | 64 | 58 | 53 | 48 | 76 | 59 | 29.87 | 29.80 | 0.00 | 14 | S |
| Cape May Court House | NJ | 2026-05-05 | Mesonet | 64 | 56 | 57 | 53 | 96 | 68 | 0.00 | 14 | WSW | ||
| Sewell | NJ | 2026-05-05 | Mesonet | 65 | 58 | 55 | 50 | 89 | 63 | 0.01 | 12 | SW | ||
| Hackettstown | NJ | 2026-05-05 | SafetyNet | 59 | 47 | 29.87 | 29.83 | 0.01 | 10 | |||||
| Stewartsville | NJ | 2026-05-05 | SafetyNet | 63 | 53 | 29.86 | 29.82 | 0.01 | 16 | |||||
| Egg Harbor Twp. | NJ | 2026-05-05 | Mesonet | 64 | 55 | 56 | 53 | 97 | 73 | 29.90 | 29.87 | 0.00 | 7 | W |
| Cherry Hill | NJ | 2026-05-05 | Mesonet | 65 | 61 | 53 | 49 | 73 | 61 | 0.00 | 13 | SE | ||
| West Cape May | NJ | 2026-05-05 | Mesonet | 64 | 56 | 54 | 51 | 88 | 70 | 0.00 | 10 | SE | ||
| Piney Hollow | NJ | 2026-05-05 | Mesonet | 65 | 55 | 54 | 53 | 93 | 67 | 0.00 | 7 | NNW | ||
| Atlantic City Marina | NJ | 2026-05-05 | SafetyNet | 58 | 56 | 0.00 | ||||||||
| Red Lion | NJ | 2026-05-05 | SafetyNet | 66 | 57 | 0.00 | ||||||||
| Kingwood | NJ | 2026-05-05 | SafetyNet | 63 | 50 | 29.86 | 29.81 | 0.00 | 8 | |||||
| Point Pleasant | NJ | 2026-05-05 | SafetyNet | 68 | 57 | 0.00 | 12 | |||||||
| Basking Ridge | NJ | 2026-05-05 | Mesonet | 60 | 48 | 58 | 47 | 100 | 74 | 29.87 | 29.83 | 0.04 | 8 | W |
| High Point Monument | NJ | 2026-05-05 | Mesonet | 61 | 52 | 50 | 40 | 92 | 52 | 0.02 | 26 | SSE | ||
| Harvey Cedars | NJ | 2026-05-05 | SafetyNet | 56 | 51 | 0.00 | 22 | |||||||
| Pequest | NJ | 2026-05-05 | Mesonet | 64 | 48 | 55 | 43 | 99 | 56 | 29.89 | 29.85 | 0.00 | 13 | WSW |
| Charlotteburg | NJ | 2026-05-05 | Mesonet | 61 | 51 | 55 | 43 | 94 | 62 | 29.83 | 29.79 | 0.00 | 15 | WNW |
| Fort Dix | NJ | 2026-05-05 | USFS | 65 | 57 | 53 | 48 | 81 | 60 | 0.00 | 14 | S | ||
| Silas Little | NJ | 2026-05-05 | USFS | 64 | 55 | 53 | 47 | 83 | 63 | 29.90 | 29.86 | 0.00 | 14 | SW |
| Ramsey | NJ | 2026-05-05 | SafetyNet | 58 | 47 | 29.83 | 29.79 | 0.00 | 4 | |||||
| Oswego Lake | NJ | 2026-05-05 | Mesonet | 65 | 52 | 56 | 51 | 98 | 69 | 29.88 | 29.85 | 0.00 | 12 | SW |
| Mullica Twp. | NJ | 2026-05-05 | SafetyNet | 65 | 55 | 0.00 | ||||||||
| High Point | NJ | 2026-05-05 | Mesonet | 64 | 52 | 52 | 41 | 88 | 51 | 29.81 | 29.78 | 0.10 | 20 | W |
| Parsippany | NJ | 2026-05-05 | SafetyNet | 62 | 56 | 0.00 | ||||||||
| Seaside Heights | NJ | 2026-05-05 | SafetyNet | 61 | 56 | 0.00 | ||||||||
| Woodbine | NJ | 2026-05-05 | Mesonet | 66 | 56 | 55 | 54 | 94 | 66 | 29.90 | 29.85 | 0.00 | 20 | SW |
| Cream Ridge | NJ | 2026-05-05 | Mesonet | 66 | 56 | 55 | 49 | 89 | 65 | 29.88 | 29.84 | 0.00 | 16 | SSW |
| Pittstown | NJ | 2026-05-05 | Mesonet | 62 | 55 | 50 | 42 | 78 | 53 | 29.86 | 29.82 | 0.00 | 15 | SSW |
| Sea Girt | NJ | 2026-05-05 | Mesonet | 67 | 53 | 56 | 51 | 99 | 65 | 29.91 | 29.86 | 0.00 | 17 | SW |
| Franklin Twp. (Somerset) | NJ | 2026-05-05 | Mesonet | 64 | 52 | 52 | 46 | 84 | 61 | 29.86 | 29.82 | 0.00 | 8 | WNW |
data collection created in 0.085508108139038 (queried in 0.066048) rendered in: 0.00025796890258789

